Terminal Aerodrome Forecast
Issued by NWS

Home | Current Version | Previous Version | Text Only | Print | Product List | Glossary On
Versions: 1 2 3 4 5 6 7 8 9 10 11 12 13 14 15 16 17 18 19 20 21 22 23 24 25
188
FTUS43 KICT 202011 AAB
TAFRSL
TAF AMD
KRSL 202011Z 2020/2118 21010KT P6SM FEW015 BKN020
     FM202200 22010KT P6SM FEW025 SCT050
     FM210000 23006KT P6SM OVC050
     FM210500 24008KT P6SM BKN070
     FM210800 24009KT P6SM SCT150
     FM211100 25008KT 5SM BR SCT250
     FM211400 26006KT 2SM BR FEW100=

USA.gov is the U.S. government's official web portal to all federal, state and local government web resources and services.